createdAt,value
2023-03-03T00:00:33.349Z,5.96
2023-03-03T00:03:07.146Z,6.02
2023-03-03T00:05:36.295Z,5.96
2023-03-03T00:08:06.206Z,5.83
2023-03-03T00:10:34.175Z,5.97
2023-03-03T00:13:02.288Z,5.86
2023-03-03T00:15:35.462Z,5.96
2023-03-03T00:18:18.169Z,6.00
2023-03-03T00:20:50.854Z,6.03
2023-03-03T00:23:27.533Z,5.81
2023-03-03T00:25:56.016Z,5.76
2023-03-03T00:28:27.181Z,5.80
2023-03-03T00:30:57.740Z,5.53
2023-03-03T00:33:29.407Z,5.72
2023-03-03T00:35:58.594Z,5.81
2023-03-03T00:38:28.270Z,5.68
2023-03-03T00:40:56.498Z,5.44
2023-03-03T00:43:27.986Z,5.80
2023-03-03T00:45:57.963Z,5.85
2023-03-03T00:48:32.150Z,5.93
2023-03-03T00:51:01.448Z,5.95
2023-03-03T00:53:32.081Z,5.94
2023-03-03T00:56:00.096Z,5.97
2023-03-03T00:58:37.609Z,5.94
2023-03-03T01:01:06.444Z,5.89
2023-03-03T01:03:35.780Z,5.78
2023-03-03T01:06:03.842Z,5.70
2023-03-03T01:08:34.958Z,5.67
2023-03-03T01:11:07.129Z,5.76
2023-03-03T01:13:38.117Z,5.60
2023-03-03T01:16:07.336Z,5.82
2023-03-03T01:18:36.549Z,5.89
2023-03-03T01:21:05.581Z,5.95
2023-03-03T01:23:35.305Z,5.99
2023-03-03T01:26:03.983Z,6.03
2023-03-03T01:28:31.987Z,6.09
2023-03-03T01:31:02.181Z,6.05
2023-03-03T01:33:31.622Z,5.98
2023-03-03T01:36:00.058Z,5.98
2023-03-03T01:38:28.381Z,6.04
2023-03-03T01:41:00.580Z,6.11
2023-03-03T01:43:31.101Z,6.09
2023-03-03T01:46:34.467Z,6.13
2023-03-03T01:49:06.821Z,6.07
2023-03-03T01:51:38.653Z,6.03
2023-03-03T01:54:11.884Z,6.00
2023-03-03T01:56:43.562Z,6.01
2023-03-03T01:59:15.026Z,5.86
2023-03-03T02:01:43.729Z,6.01
2023-03-03T02:04:11.992Z,5.87
2023-03-03T02:06:42.609Z,6.03
2023-03-03T02:09:16.301Z,5.97
2023-03-03T02:11:48.874Z,6.10
2023-03-03T02:14:17.064Z,6.15
2023-03-03T02:16:45.958Z,6.12
2023-03-03T02:19:23.001Z,6.12
2023-03-03T02:21:51.428Z,5.85
2023-03-03T02:24:27.483Z,5.78
2023-03-03T02:26:57.506Z,5.93
2023-03-03T02:29:25.801Z,5.95
2023-03-03T02:31:54.590Z,5.87
2023-03-03T02:34:23.314Z,5.96
2023-03-03T02:36:51.700Z,6.04
2023-03-03T02:39:24.146Z,6.00
2023-03-03T02:41:56.960Z,6.16
2023-03-03T02:44:29.141Z,6.15
2023-03-03T02:46:58.769Z,6.18
2023-03-03T02:49:28.522Z,6.19
2023-03-03T02:51:56.883Z,6.18
2023-03-03T02:54:27.330Z,5.94
2023-03-03T02:56:55.458Z,5.95
2023-03-03T02:59:23.786Z,6.05
2023-03-03T03:01:54.084Z,6.06
2023-03-03T03:04:24.603Z,5.76
2023-03-03T03:06:53.664Z,5.76
2023-03-03T03:09:24.405Z,5.77
2023-03-03T03:11:53.324Z,5.83
2023-03-03T03:14:23.427Z,5.62
2023-03-03T03:16:52.447Z,5.74
2023-03-03T03:19:22.959Z,5.75
2023-03-03T03:21:51.038Z,5.87
2023-03-03T03:24:19.513Z,5.99
2023-03-03T03:26:48.411Z,6.01
2023-03-03T03:29:16.415Z,6.06
2023-03-03T03:31:45.366Z,5.96
2023-03-03T03:34:13.913Z,5.79
2023-03-03T03:36:43.247Z,5.92
2023-03-03T03:39:12.352Z,5.76
2023-03-03T03:41:41.260Z,5.82
2023-03-03T03:44:09.358Z,5.69
2023-03-03T03:46:37.422Z,5.75
2023-03-03T03:49:06.830Z,5.86
2023-03-03T03:51:38.284Z,5.82
2023-03-03T03:54:08.632Z,5.77
2023-03-03T03:56:37.057Z,5.83
2023-03-03T03:59:07.446Z,5.81
2023-03-03T04:01:36.461Z,5.89
2023-03-03T04:04:05.132Z,5.63
2023-03-03T04:06:33.273Z,5.75
2023-03-03T04:09:01.735Z,5.78
2023-03-03T04:11:31.500Z,5.85
2023-03-03T04:13:59.773Z,5.86
2023-03-03T04:16:28.089Z,5.70
2023-03-03T04:18:57.070Z,5.55
2023-03-03T04:21:25.455Z,5.42
2023-03-03T04:23:54.485Z,5.29
2023-03-03T04:26:22.770Z,5.38
2023-03-03T04:28:52.189Z,5.30
2023-03-03T04:31:20.932Z,5.03
2023-03-03T04:33:49.339Z,5.46
2023-03-03T04:36:18.227Z,5.62
2023-03-03T04:38:46.322Z,5.72
2023-03-03T04:41:14.985Z,5.74
2023-03-03T04:43:43.155Z,5.76
2023-03-03T04:46:14.258Z,5.82
2023-03-03T04:48:42.989Z,5.62
2023-03-03T04:51:11.273Z,5.69
2023-03-03T04:53:39.543Z,5.72
2023-03-03T04:56:08.750Z,5.49
2023-03-03T04:58:37.185Z,5.60
2023-03-03T05:01:05.528Z,5.59
2023-03-03T05:03:35.370Z,5.58
2023-03-03T05:06:03.543Z,5.57
2023-03-03T05:08:31.573Z,5.64
2023-03-03T05:10:59.888Z,5.65
2023-03-03T05:13:28.209Z,5.64
2023-03-03T05:15:57.252Z,5.67
2023-03-03T05:18:27.576Z,5.58
2023-03-03T05:20:56.852Z,5.66
2023-03-03T05:23:25.152Z,5.54
2023-03-03T05:25:53.429Z,5.57
2023-03-03T05:28:21.434Z,5.63
2023-03-03T05:30:49.600Z,5.70
2023-03-03T05:33:18.901Z,5.76
2023-03-03T05:35:47.152Z,5.86
2023-03-03T05:38:16.423Z,5.80
2023-03-03T05:40:45.413Z,5.84
2023-03-03T05:43:13.476Z,5.79
2023-03-03T05:45:41.505Z,5.76
2023-03-03T05:48:11.155Z,5.75
2023-03-03T05:50:40.086Z,5.75
2023-03-03T05:53:08.317Z,5.74
2023-03-03T05:55:38.040Z,5.87
2023-03-03T05:58:06.027Z,5.79
2023-03-03T06:00:33.971Z,5.73
2023-03-03T06:03:02.265Z,5.71
2023-03-03T06:05:30.345Z,5.83
2023-03-03T06:07:58.648Z,5.76
2023-03-03T06:10:27.246Z,5.87
2023-03-03T06:12:58.519Z,5.92
2023-03-03T06:15:26.886Z,5.86
2023-03-03T06:17:55.086Z,5.99
2023-03-03T06:20:23.123Z,5.96
2023-03-03T06:22:51.408Z,6.04
2023-03-03T06:25:19.702Z,6.09
2023-03-03T06:27:47.779Z,6.03
2023-03-03T06:30:19.006Z,6.03
2023-03-03T06:32:47.355Z,6.01
2023-03-03T06:35:15.729Z,5.99
2023-03-03T06:37:43.835Z,5.93
2023-03-03T06:40:13.585Z,6.04
2023-03-03T06:42:42.154Z,6.09
2023-03-03T06:45:10.843Z,6.04
2023-03-03T06:47:40.464Z,6.05
2023-03-03T06:50:10.985Z,5.98
2023-03-03T06:52:39.370Z,6.11
2023-03-03T06:55:14.532Z,6.09
2023-03-03T06:57:43.248Z,6.18
2023-03-03T07:00:20.132Z,6.25
2023-03-03T07:02:57.375Z,6.25
2023-03-03T07:05:29.053Z,6.28
2023-03-03T07:07:57.611Z,6.31
2023-03-03T07:10:30.517Z,6.37
2023-03-03T07:13:12.073Z,6.44
2023-03-03T07:15:39.972Z,6.42
2023-03-03T07:18:26.581Z,6.47
2023-03-03T07:20:54.542Z,6.64
2023-03-03T07:23:25.616Z,6.64
2023-03-03T07:25:53.881Z,6.67
2023-03-03T07:28:25.539Z,6.67
2023-03-03T07:30:54.664Z,6.72
2023-03-03T07:33:28.563Z,6.76
2023-03-03T07:35:58.749Z,6.88
2023-03-03T07:38:32.897Z,6.94
2023-03-03T07:41:03.997Z,6.74
2023-03-03T07:43:36.607Z,6.51
2023-03-03T07:46:22.867Z,6.78
2023-03-03T07:48:54.153Z,6.68
2023-03-03T07:51:25.402Z,6.51
2023-03-03T07:53:55.134Z,6.72
2023-03-03T07:56:30.464Z,6.81
2023-03-03T07:58:59.595Z,6.87
2023-03-03T08:01:40.849Z,7.04
2023-03-03T08:04:23.509Z,7.18
2023-03-03T08:06:53.805Z,7.31
2023-03-03T08:09:38.462Z,7.22
2023-03-03T08:12:42.045Z,7.34
2023-03-03T08:15:20.779Z,7.44
2023-03-03T08:17:50.180Z,7.49
2023-03-03T08:20:44.809Z,7.47
2023-03-03T08:23:13.538Z,7.61
2023-03-03T08:25:42.807Z,7.61
2023-03-03T08:28:11.791Z,7.63
2023-03-03T08:30:39.995Z,7.63
2023-03-03T08:33:08.561Z,7.71
2023-03-03T08:35:38.008Z,7.71
2023-03-03T08:38:06.309Z,7.76
2023-03-03T08:40:35.069Z,7.84
2023-03-03T08:43:03.432Z,7.92
2023-03-03T08:45:32.313Z,7.90
2023-03-03T08:48:01.266Z,7.89
2023-03-03T08:50:30.311Z,7.82
2023-03-03T08:52:59.737Z,7.93
2023-03-03T08:55:28.140Z,7.99
2023-03-03T08:57:56.112Z,8.04
2023-03-03T09:00:25.066Z,7.94
2023-03-03T09:02:54.282Z,8.02
2023-03-03T09:05:23.593Z,8.02
2023-03-03T09:07:52.388Z,8.02
2023-03-03T09:10:30.839Z,8.18
2023-03-03T09:13:01.976Z,8.27
2023-03-03T09:15:31.989Z,8.33
2023-03-03T09:18:01.306Z,8.42
2023-03-03T09:20:34.333Z,8.48
2023-03-03T09:23:33.731Z,8.43
2023-03-03T09:26:23.282Z,8.29
2023-03-03T09:28:51.510Z,8.19
2023-03-03T09:31:27.086Z,8.22
2023-03-03T09:33:57.838Z,8.34
2023-03-03T09:36:29.035Z,8.39
2023-03-03T09:38:59.080Z,8.46
2023-03-03T09:42:03.762Z,8.56
2023-03-03T09:44:45.921Z,8.60
2023-03-03T09:47:35.947Z,8.51
2023-03-03T09:50:16.664Z,8.64
2023-03-03T09:52:53.776Z,8.72
2023-03-03T09:55:37.245Z,8.77
2023-03-03T09:58:26.097Z,8.84
2023-03-03T10:01:05.904Z,8.75
2023-03-03T10:04:02.260Z,8.47
2023-03-03T10:06:34.911Z,8.57
2023-03-03T10:09:23.759Z,8.77
2023-03-03T10:12:00.844Z,8.73
2023-03-03T10:14:54.122Z,8.48
2023-03-03T10:17:34.355Z,8.99
2023-03-03T10:20:26.285Z,8.75
2023-03-03T10:22:57.020Z,9.26
2023-03-03T10:25:42.284Z,9.56
2023-03-03T10:28:36.577Z,9.68
2023-03-03T10:31:18.587Z,9.71
2023-03-03T10:33:54.521Z,9.82
2023-03-03T10:36:36.135Z,9.69
2023-03-03T10:39:19.638Z,9.61
2023-03-03T10:42:10.159Z,9.59
2023-03-03T10:44:54.329Z,9.34
2023-03-03T10:47:35.719Z,9.58
2023-03-03T10:50:15.996Z,9.41
2023-03-03T10:52:50.481Z,9.14
2023-03-03T10:55:39.648Z,9.30
2023-03-03T10:58:33.182Z,9.15
2023-03-03T11:01:09.613Z,9.15
2023-03-03T11:04:09.657Z,9.15
2023-03-03T11:06:46.472Z,9.21
2023-03-03T11:09:31.890Z,9.06
2023-03-03T11:12:09.028Z,9.16
2023-03-03T11:14:47.812Z,9.13
2023-03-03T11:17:21.622Z,9.27
2023-03-03T11:20:02.629Z,8.95
2023-03-03T11:22:42.038Z,9.05
2023-03-03T11:25:24.113Z,9.25
2023-03-03T11:28:09.433Z,9.46
2023-03-03T11:30:59.944Z,9.45
2023-03-03T11:33:35.471Z,8.96
2023-03-03T11:36:12.771Z,8.86
2023-03-03T11:38:49.446Z,9.02
2023-03-03T11:41:35.865Z,8.73
2023-03-03T11:44:12.532Z,8.85
2023-03-03T11:46:47.337Z,8.79
2023-03-03T11:49:22.697Z,9.01
2023-03-03T11:52:03.185Z,9.24
2023-03-03T11:54:37.844Z,9.30
2023-03-03T11:57:18.917Z,9.25
2023-03-03T11:59:57.131Z,9.27
2023-03-03T12:02:43.951Z,9.06
2023-03-03T12:05:26.775Z,9.18
2023-03-03T12:08:08.048Z,9.35
2023-03-03T12:10:44.009Z,9.28
2023-03-03T12:13:23.189Z,9.25
2023-03-03T12:15:56.570Z,9.34
2023-03-03T12:18:43.745Z,9.50
2023-03-03T12:21:24.089Z,9.42
2023-03-03T12:24:09.391Z,9.36
2023-03-03T12:26:48.568Z,9.57
2023-03-03T12:29:28.841Z,9.47
2023-03-03T12:32:05.688Z,9.68
2023-03-03T12:34:39.941Z,9.66
2023-03-03T12:37:21.938Z,9.51
2023-03-03T12:40:03.628Z,9.29
2023-03-03T12:42:48.897Z,9.66
2023-03-03T12:45:34.515Z,9.41
2023-03-03T12:48:09.929Z,9.35
2023-03-03T12:50:55.833Z,9.35
2023-03-03T12:53:35.358Z,9.36
2023-03-03T12:56:08.803Z,9.47
2023-03-03T12:58:47.484Z,9.25
2023-03-03T13:01:33.677Z,9.51
2023-03-03T13:04:08.794Z,9.48
2023-03-03T13:06:43.970Z,9.71
2023-03-03T13:09:23.459Z,9.72
2023-03-03T13:12:06.189Z,9.68
2023-03-03T13:14:44.454Z,9.83
2023-03-03T13:17:20.907Z,10.12
2023-03-03T13:19:55.502Z,10.19
2023-03-03T13:22:35.662Z,10.07
2023-03-03T13:25:09.851Z,9.94
2023-03-03T13:27:41.959Z,9.54
2023-03-03T13:30:21.184Z,9.62
2023-03-03T13:32:55.970Z,9.70
2023-03-03T13:35:34.901Z,9.84
2023-03-03T13:38:05.889Z,9.46
2023-03-03T13:40:42.472Z,9.68
2023-03-03T13:43:19.292Z,9.80
2023-03-03T13:45:59.921Z,9.69
2023-03-03T13:48:43.180Z,9.88
2023-03-03T13:51:19.566Z,9.84
2023-03-03T13:53:54.722Z,9.99
2023-03-03T13:56:39.375Z,10.00
2023-03-03T13:59:17.789Z,10.15
2023-03-03T14:01:56.882Z,10.26
2023-03-03T14:04:35.664Z,10.35
2023-03-03T14:07:14.463Z,10.24
2023-03-03T14:09:57.489Z,10.34
2023-03-03T14:12:35.493Z,10.45
2023-03-03T14:15:12.686Z,10.44
2023-03-03T14:17:54.831Z,10.52
2023-03-03T14:20:29.042Z,10.59
2023-03-03T14:23:00.569Z,10.51
2023-03-03T14:25:53.549Z,10.68
2023-03-03T14:28:24.180Z,10.59
2023-03-03T14:30:56.404Z,10.58
2023-03-03T14:33:30.938Z,10.64
2023-03-03T14:36:16.055Z,10.77
2023-03-03T14:38:51.696Z,10.82
2023-03-03T14:41:23.853Z,10.79
2023-03-03T14:44:00.673Z,10.71
2023-03-03T14:46:36.490Z,10.69
2023-03-03T14:49:07.889Z,10.64
2023-03-03T14:51:45.117Z,10.68
2023-03-03T14:54:23.606Z,10.54
2023-03-03T14:57:13.281Z,10.51
2023-03-03T14:59:41.855Z,10.23
2023-03-03T15:02:32.896Z,10.22
2023-03-03T15:05:29.552Z,10.10
2023-03-03T15:07:59.800Z,10.12
2023-03-03T15:10:34.732Z,10.02
2023-03-03T15:13:34.376Z,10.19
2023-03-03T15:16:06.551Z,10.08
2023-03-03T15:18:51.961Z,9.86
2023-03-03T15:21:26.860Z,9.99
2023-03-03T15:24:00.869Z,10.14
2023-03-03T15:26:39.759Z,10.18
2023-03-03T15:29:17.298Z,10.23
2023-03-03T15:31:53.244Z,10.14
2023-03-03T15:34:40.592Z,10.09
2023-03-03T15:37:22.345Z,10.09
2023-03-03T15:39:58.234Z,9.80
2023-03-03T15:42:35.840Z,9.69
2023-03-03T15:45:15.383Z,9.69
2023-03-03T15:47:57.245Z,9.79
2023-03-03T15:50:36.308Z,9.64
2023-03-03T15:53:27.820Z,9.62
2023-03-03T15:56:13.064Z,9.30
2023-03-03T15:59:08.790Z,9.46
2023-03-03T16:01:45.240Z,9.51
2023-03-03T16:04:16.859Z,9.52
2023-03-03T16:06:58.808Z,9.62
2023-03-03T16:09:42.791Z,9.67
2023-03-03T16:12:22.545Z,9.57
2023-03-03T16:15:07.396Z,9.32
2023-03-03T16:17:48.381Z,9.23
2023-03-03T16:20:24.222Z,9.31
2023-03-03T16:23:26.290Z,9.27
2023-03-03T16:26:06.045Z,9.24
2023-03-03T16:28:48.027Z,9.32
2023-03-03T16:31:22.929Z,9.21
2023-03-03T16:34:01.095Z,9.37
2023-03-03T16:36:36.149Z,9.48
2023-03-03T16:39:09.951Z,9.51
2023-03-03T16:41:48.207Z,9.45
2023-03-03T16:44:35.610Z,9.26
2023-03-03T16:47:17.265Z,9.21
2023-03-03T16:49:52.856Z,9.17
2023-03-03T16:52:26.577Z,9.21
2023-03-03T16:54:58.227Z,9.04
2023-03-03T16:57:35.426Z,9.16
2023-03-03T17:00:10.485Z,9.12
2023-03-03T17:03:13.418Z,9.04
2023-03-03T17:05:49.776Z,9.16
2023-03-03T17:08:34.892Z,9.07
2023-03-03T17:11:12.638Z,9.02
2023-03-03T17:13:57.603Z,9.07
2023-03-03T17:16:49.809Z,9.03
2023-03-03T17:19:32.224Z,9.03
2023-03-03T17:22:13.539Z,9.06
2023-03-03T17:24:54.073Z,9.01
2023-03-03T17:27:29.116Z,8.99
2023-03-03T17:30:07.570Z,8.97
2023-03-03T17:32:59.926Z,8.98
2023-03-03T17:35:53.692Z,9.01
2023-03-03T17:38:36.068Z,9.02
2023-03-03T17:41:09.986Z,8.89
2023-03-03T17:43:48.488Z,8.60
2023-03-03T17:46:24.540Z,8.79
2023-03-03T17:49:31.721Z,8.76
2023-03-03T17:52:21.255Z,8.79
2023-03-03T17:55:06.619Z,8.73
2023-03-03T17:57:52.082Z,8.67
2023-03-03T18:00:37.150Z,8.56
2023-03-03T18:03:35.936Z,8.46
2023-03-03T18:06:27.679Z,8.36
2023-03-03T18:09:16.144Z,8.28
2023-03-03T18:12:00.024Z,8.20
2023-03-03T18:14:45.900Z,8.11
2023-03-03T18:17:34.708Z,8.00
2023-03-03T18:20:24.765Z,7.92
2023-03-03T18:22:54.199Z,7.83
2023-03-03T18:25:24.068Z,7.74
2023-03-03T18:28:20.624Z,7.67
2023-03-03T18:30:57.480Z,7.62
2023-03-03T18:33:37.918Z,7.50
2023-03-03T18:36:15.929Z,7.43
2023-03-03T18:38:47.902Z,7.37
2023-03-03T18:41:24.675Z,7.32
2023-03-03T18:43:58.282Z,7.26
2023-03-03T18:47:00.445Z,7.16
2023-03-03T18:49:52.580Z,7.09
2023-03-03T18:52:26.398Z,7.04
2023-03-03T18:55:22.776Z,6.96
2023-03-03T18:58:31.162Z,6.93
2023-03-03T19:01:03.770Z,6.84
2023-03-03T19:03:37.478Z,6.77
2023-03-03T19:06:10.297Z,6.72
2023-03-03T19:08:56.242Z,6.75
2023-03-03T19:11:38.640Z,6.75
2023-03-03T19:14:19.328Z,6.76
2023-03-03T19:16:49.677Z,6.75
2023-03-03T19:19:19.561Z,6.75
2023-03-03T19:21:51.341Z,6.75
2023-03-03T19:24:30.989Z,6.67
2023-03-03T19:27:14.773Z,6.66
2023-03-03T19:30:01.941Z,6.61
2023-03-03T19:33:02.367Z,6.60
2023-03-03T19:35:38.743Z,6.54
2023-03-03T19:38:20.329Z,6.52
2023-03-03T19:41:00.284Z,6.56
2023-03-03T19:43:42.009Z,6.58
2023-03-03T19:46:34.726Z,6.59
2023-03-03T19:49:14.004Z,6.59
2023-03-03T19:51:48.921Z,6.60
2023-03-03T19:54:32.813Z,6.65
2023-03-03T19:57:06.869Z,6.66
2023-03-03T19:59:42.346Z,6.65
2023-03-03T20:02:31.529Z,6.69
2023-03-03T20:05:14.643Z,6.73
2023-03-03T20:07:50.785Z,6.79
2023-03-03T20:10:45.113Z,6.83
2023-03-03T20:13:41.120Z,6.85
2023-03-03T20:16:19.648Z,6.95
2023-03-03T20:19:10.529Z,6.94
2023-03-03T20:21:45.620Z,7.00
2023-03-03T20:24:39.658Z,7.04
2023-03-03T20:27:16.146Z,7.04
2023-03-03T20:30:00.276Z,7.07
2023-03-03T20:32:42.714Z,6.96
2023-03-03T20:35:24.692Z,7.12
2023-03-03T20:38:04.645Z,7.18
2023-03-03T20:40:40.076Z,7.25
2023-03-03T20:43:21.464Z,7.29
2023-03-03T20:46:01.342Z,7.26
2023-03-03T20:48:44.159Z,7.35
2023-03-03T20:51:19.126Z,7.37
2023-03-03T20:53:57.756Z,7.39
2023-03-03T20:56:32.912Z,7.29
2023-03-03T20:59:14.458Z,7.32
2023-03-03T21:01:53.195Z,7.29
2023-03-03T21:04:24.569Z,7.20
2023-03-03T21:06:53.290Z,7.24
2023-03-03T21:09:27.974Z,7.22
2023-03-03T21:11:56.469Z,7.31
2023-03-03T21:14:27.310Z,7.32
2023-03-03T21:16:58.685Z,7.37
2023-03-03T21:19:30.278Z,7.24
2023-03-03T21:22:02.139Z,7.28
2023-03-03T21:24:51.371Z,7.31
2023-03-03T21:27:28.454Z,7.29
2023-03-03T21:30:05.974Z,7.34
2023-03-03T21:32:41.702Z,7.25
2023-03-03T21:35:12.177Z,7.25
2023-03-03T21:37:48.742Z,7.29
2023-03-03T21:40:21.039Z,7.14
2023-03-03T21:42:49.657Z,7.22
2023-03-03T21:45:20.644Z,7.22
2023-03-03T21:47:50.787Z,7.17
2023-03-03T21:50:21.573Z,7.03
2023-03-03T21:52:49.924Z,7.09
2023-03-03T21:55:18.509Z,7.10
2023-03-03T21:57:46.702Z,7.12
2023-03-03T22:00:15.349Z,6.97
2023-03-03T22:02:43.741Z,6.95
2023-03-03T22:05:13.163Z,6.95
2023-03-03T22:07:41.307Z,7.02
2023-03-03T22:10:11.028Z,7.04
2023-03-03T22:12:39.222Z,6.96
2023-03-03T22:15:08.110Z,7.03
2023-03-03T22:17:36.495Z,7.02
2023-03-03T22:20:05.211Z,7.08
2023-03-03T22:22:34.676Z,6.99
2023-03-03T22:25:03.281Z,7.01
2023-03-03T22:27:31.308Z,7.04
2023-03-03T22:29:59.365Z,7.07
2023-03-03T22:32:28.522Z,7.03
2023-03-03T22:34:56.708Z,7.13
2023-03-03T22:37:24.618Z,6.98
2023-03-03T22:39:54.189Z,7.08
2023-03-03T22:42:23.401Z,7.09
2023-03-03T22:44:51.472Z,7.09
2023-03-03T22:47:19.960Z,7.09
2023-03-03T22:49:48.151Z,7.09
2023-03-03T22:52:16.134Z,7.16
2023-03-03T22:54:44.414Z,7.10
2023-03-03T22:57:13.769Z,7.16
2023-03-03T22:59:41.706Z,7.14
2023-03-03T23:02:09.989Z,7.15
2023-03-03T23:04:39.187Z,7.17
2023-03-03T23:07:07.286Z,7.12
2023-03-03T23:09:35.613Z,7.18
2023-03-03T23:12:03.691Z,7.16
2023-03-03T23:14:33.174Z,7.11
2023-03-03T23:17:01.810Z,7.11
2023-03-03T23:19:29.841Z,7.13
2023-03-03T23:21:58.348Z,7.20
2023-03-03T23:24:26.648Z,7.21
2023-03-03T23:26:57.421Z,7.25
2023-03-03T23:29:25.757Z,7.15
2023-03-03T23:31:55.539Z,7.20
2023-03-03T23:34:23.670Z,7.10
2023-03-03T23:36:51.650Z,7.27
2023-03-03T23:39:20.144Z,7.31
2023-03-03T23:41:48.102Z,7.31
2023-03-03T23:44:16.107Z,7.06
2023-03-03T23:46:44.580Z,7.25
2023-03-03T23:49:13.958Z,7.13
2023-03-03T23:51:42.785Z,7.13
2023-03-03T23:54:11.128Z,7.25
2023-03-03T23:56:39.116Z,7.27
2023-03-03T23:59:07.188Z,7.11
